sensor_id;sensor_type;location;lat;lon;timestamp;P1;durP1;ratioP1;P2;durP2;ratioP2
18322;SDS011;9287;49.456;11.064;2023-02-28T00:01:08;1.83;;;1.73;;
18322;SDS011;9287;49.456;11.064;2023-02-28T00:03:36;2.53;;;2.33;;
18322;SDS011;9287;49.456;11.064;2023-02-28T00:06:04;2.40;;;2.20;;
18322;SDS011;9287;49.456;11.064;2023-02-28T00:08:36;3.10;;;2.80;;
18322;SDS011;9287;49.456;11.064;2023-02-28T00:11:04;2.57;;;2.37;;
18322;SDS011;9287;49.456;11.064;2023-02-28T00:13:35;3.63;;;2.57;;
18322;SDS011;9287;49.456;11.064;2023-02-28T00:16:05;2.43;;;2.23;;
18322;SDS011;9287;49.456;11.064;2023-02-28T00:18:34;2.37;;;2.00;;
18322;SDS011;9287;49.456;11.064;2023-02-28T00:21:02;2.53;;;2.00;;
18322;SDS011;9287;49.456;11.064;2023-02-28T00:23:31;3.40;;;2.50;;
18322;SDS011;9287;49.456;11.064;2023-02-28T00:26:00;2.37;;;2.17;;
18322;SDS011;9287;49.456;11.064;2023-02-28T00:28:28;2.77;;;2.27;;
18322;SDS011;9287;49.456;11.064;2023-02-28T00:30:56;3.00;;;2.70;;
18322;SDS011;9287;49.456;11.064;2023-02-28T00:33:26;3.53;;;2.90;;
18322;SDS011;9287;49.456;11.064;2023-02-28T00:36:00;3.10;;;2.40;;
18322;SDS011;9287;49.456;11.064;2023-02-28T00:38:30;3.07;;;2.33;;
18322;SDS011;9287;49.456;11.064;2023-02-28T00:40:57;3.87;;;3.47;;
18322;SDS011;9287;49.456;11.064;2023-02-28T00:43:32;2.40;;;2.20;;
18322;SDS011;9287;49.456;11.064;2023-02-28T00:46:01;4.07;;;2.47;;
18322;SDS011;9287;49.456;11.064;2023-02-28T00:48:29;2.93;;;2.73;;
18322;SDS011;9287;49.456;11.064;2023-02-28T00:50:58;3.17;;;2.97;;
18322;SDS011;9287;49.456;11.064;2023-02-28T00:53:26;3.30;;;3.00;;
18322;SDS011;9287;49.456;11.064;2023-02-28T00:55:53;3.93;;;3.10;;
18322;SDS011;9287;49.456;11.064;2023-02-28T00:58:21;3.40;;;3.20;;
18322;SDS011;9287;49.456;11.064;2023-02-28T01:00:50;4.07;;;3.10;;
18322;SDS011;9287;49.456;11.064;2023-02-28T01:03:19;3.07;;;2.80;;
18322;SDS011;9287;49.456;11.064;2023-02-28T01:05:48;4.20;;;3.10;;
18322;SDS011;9287;49.456;11.064;2023-02-28T01:08:16;3.40;;;3.10;;
18322;SDS011;9287;49.456;11.064;2023-02-28T01:10:44;3.33;;;3.13;;
18322;SDS011;9287;49.456;11.064;2023-02-28T01:13:12;4.13;;;2.90;;
18322;SDS011;9287;49.456;11.064;2023-02-28T01:15:41;2.90;;;2.70;;
18322;SDS011;9287;49.456;11.064;2023-02-28T01:18:13;3.10;;;2.80;;
18322;SDS011;9287;49.456;11.064;2023-02-28T01:20:41;3.20;;;2.90;;
18322;SDS011;9287;49.456;11.064;2023-02-28T01:23:09;4.60;;;3.73;;
18322;SDS011;9287;49.456;11.064;2023-02-28T01:25:37;4.00;;;2.90;;
18322;SDS011;9287;49.456;11.064;2023-02-28T01:28:05;3.53;;;3.10;;
18322;SDS011;9287;49.456;11.064;2023-02-28T01:30:33;3.53;;;2.83;;
18322;SDS011;9287;49.456;11.064;2023-02-28T01:33:01;2.90;;;2.70;;
18322;SDS011;9287;49.456;11.064;2023-02-28T01:35:33;3.90;;;3.60;;
18322;SDS011;9287;49.456;11.064;2023-02-28T01:38:01;3.83;;;3.40;;
18322;SDS011;9287;49.456;11.064;2023-02-28T01:40:46;4.17;;;3.57;;
18322;SDS011;9287;49.456;11.064;2023-02-28T01:43:16;3.67;;;3.30;;
18322;SDS011;9287;49.456;11.064;2023-02-28T01:45:48;4.00;;;2.70;;
18322;SDS011;9287;49.456;11.064;2023-02-28T01:48:16;4.20;;;3.20;;
18322;SDS011;9287;49.456;11.064;2023-02-28T01:50:46;3.70;;;3.40;;
18322;SDS011;9287;49.456;11.064;2023-02-28T01:53:15;3.40;;;3.07;;
18322;SDS011;9287;49.456;11.064;2023-02-28T01:55:47;4.03;;;3.13;;
18322;SDS011;9287;49.456;11.064;2023-02-28T01:58:17;4.33;;;3.23;;
18322;SDS011;9287;49.456;11.064;2023-02-28T02:00:45;3.50;;;3.20;;
18322;SDS011;9287;49.456;11.064;2023-02-28T02:03:14;4.13;;;3.07;;
18322;SDS011;9287;49.456;11.064;2023-02-28T02:05:47;3.47;;;3.17;;
18322;SDS011;9287;49.456;11.064;2023-02-28T02:08:17;4.60;;;3.63;;
18322;SDS011;9287;49.456;11.064;2023-02-28T02:10:50;4.47;;;3.73;;
18322;SDS011;9287;49.456;11.064;2023-02-28T02:13:24;3.33;;;3.03;;
18322;SDS011;9287;49.456;11.064;2023-02-28T02:16:04;4.00;;;3.60;;
18322;SDS011;9287;49.456;11.064;2023-02-28T02:18:40;3.60;;;3.37;;
18322;SDS011;9287;49.456;11.064;2023-02-28T02:24:46;3.60;;;3.30;;
18322;SDS011;9287;49.456;11.064;2023-02-28T02:27:28;3.67;;;3.27;;
18322;SDS011;9287;49.456;11.064;2023-02-28T02:30:14;4.30;;;4.00;;
18322;SDS011;9287;49.456;11.064;2023-02-28T02:33:01;3.73;;;3.40;;
18322;SDS011;9287;49.456;11.064;2023-02-28T02:35:52;4.40;;;4.00;;
18322;SDS011;9287;49.456;11.064;2023-02-28T02:38:33;4.67;;;4.20;;
18322;SDS011;9287;49.456;11.064;2023-02-28T02:41:08;4.13;;;3.70;;
18322;SDS011;9287;49.456;11.064;2023-02-28T02:43:45;4.70;;;3.77;;
18322;SDS011;9287;49.456;11.064;2023-02-28T02:46:17;4.90;;;4.40;;
18322;SDS011;9287;49.456;11.064;2023-02-28T02:48:47;4.23;;;3.70;;
18322;SDS011;9287;49.456;11.064;2023-02-28T02:51:18;3.83;;;3.53;;
18322;SDS011;9287;49.456;11.064;2023-02-28T02:53:51;3.50;;;3.20;;
18322;SDS011;9287;49.456;11.064;2023-02-28T02:56:23;3.77;;;3.47;;
18322;SDS011;9287;49.456;11.064;2023-02-28T02:58:54;4.60;;;3.77;;
18322;SDS011;9287;49.456;11.064;2023-02-28T03:01:26;5.10;;;3.70;;
18322;SDS011;9287;49.456;11.064;2023-02-28T03:03:57;4.13;;;3.67;;
18322;SDS011;9287;49.456;11.064;2023-02-28T03:06:31;4.40;;;4.10;;
18322;SDS011;9287;49.456;11.064;2023-02-28T03:08:59;5.53;;;4.37;;
18322;SDS011;9287;49.456;11.064;2023-02-28T03:11:28;4.27;;;3.87;;
18322;SDS011;9287;49.456;11.064;2023-02-28T03:17:00;4.33;;;3.93;;
18322;SDS011;9287;49.456;11.064;2023-02-28T03:19:45;4.70;;;4.30;;
18322;SDS011;9287;49.456;11.064;2023-02-28T03:22:24;5.07;;;4.60;;
18322;SDS011;9287;49.456;11.064;2023-02-28T03:25:04;5.13;;;4.73;;
18322;SDS011;9287;49.456;11.064;2023-02-28T03:27:36;5.60;;;5.00;;
18322;SDS011;9287;49.456;11.064;2023-02-28T03:30:10;5.07;;;4.60;;
18322;SDS011;9287;49.456;11.064;2023-02-28T03:32:44;5.40;;;4.73;;
18322;SDS011;9287;49.456;11.064;2023-02-28T03:35:21;5.27;;;4.77;;
18322;SDS011;9287;49.456;11.064;2023-02-28T03:37:53;5.57;;;5.07;;
18322;SDS011;9287;49.456;11.064;2023-02-28T03:40:29;6.20;;;5.57;;
18322;SDS011;9287;49.456;11.064;2023-02-28T03:43:01;5.20;;;4.70;;
18322;SDS011;9287;49.456;11.064;2023-02-28T03:45:32;6.27;;;4.70;;
18322;SDS011;9287;49.456;11.064;2023-02-28T03:48:03;5.73;;;5.23;;
18322;SDS011;9287;49.456;11.064;2023-02-28T03:50:37;5.97;;;5.43;;
18322;SDS011;9287;49.456;11.064;2023-02-28T03:53:10;6.00;;;5.40;;
18322;SDS011;9287;49.456;11.064;2023-02-28T03:55:42;7.13;;;5.60;;
18322;SDS011;9287;49.456;11.064;2023-02-28T03:58:13;8.00;;;5.50;;
18322;SDS011;9287;49.456;11.064;2023-02-28T04:00:47;5.63;;;5.13;;
18322;SDS011;9287;49.456;11.064;2023-02-28T04:03:19;6.60;;;5.43;;
18322;SDS011;9287;49.456;11.064;2023-02-28T04:05:48;6.70;;;5.83;;
18322;SDS011;9287;49.456;11.064;2023-02-28T04:08:20;9.40;;;6.33;;
18322;SDS011;9287;49.456;11.064;2023-02-28T04:10:50;7.57;;;5.93;;
18322;SDS011;9287;49.456;11.064;2023-02-28T04:13:23;5.83;;;5.10;;
18322;SDS011;9287;49.456;11.064;2023-02-28T04:15:51;6.43;;;5.83;;
18322;SDS011;9287;49.456;11.064;2023-02-28T04:18:19;5.67;;;5.17;;
18322;SDS011;9287;49.456;11.064;2023-02-28T04:20:46;7.20;;;6.03;;
18322;SDS011;9287;49.456;11.064;2023-02-28T04:23:14;5.73;;;5.20;;
18322;SDS011;9287;49.456;11.064;2023-02-28T04:25:43;5.73;;;5.27;;
18322;SDS011;9287;49.456;11.064;2023-02-28T04:28:11;9.13;;;6.50;;
18322;SDS011;9287;49.456;11.064;2023-02-28T04:30:39;7.27;;;6.07;;
18322;SDS011;9287;49.456;11.064;2023-02-28T04:33:06;6.17;;;5.67;;
18322;SDS011;9287;49.456;11.064;2023-02-28T04:35:34;6.73;;;5.60;;
18322;SDS011;9287;49.456;11.064;2023-02-28T04:38:02;6.60;;;6.00;;
18322;SDS011;9287;49.456;11.064;2023-02-28T04:40:30;6.63;;;5.93;;
18322;SDS011;9287;49.456;11.064;2023-02-28T04:42:59;9.53;;;5.93;;
18322;SDS011;9287;49.456;11.064;2023-02-28T04:45:26;5.93;;;5.33;;
18322;SDS011;9287;49.456;11.064;2023-02-28T04:47:56;6.23;;;5.63;;
18322;SDS011;9287;49.456;11.064;2023-02-28T04:50:24;5.80;;;5.20;;
18322;SDS011;9287;49.456;11.064;2023-02-28T04:52:51;6.77;;;6.10;;
18322;SDS011;9287;49.456;11.064;2023-02-28T04:55:19;6.97;;;5.73;;
18322;SDS011;9287;49.456;11.064;2023-02-28T04:57:47;6.70;;;5.83;;
18322;SDS011;9287;49.456;11.064;2023-02-28T05:00:16;6.47;;;5.30;;
18322;SDS011;9287;49.456;11.064;2023-02-28T05:02:44;5.70;;;5.20;;
18322;SDS011;9287;49.456;11.064;2023-02-28T05:05:12;6.90;;;5.97;;
18322;SDS011;9287;49.456;11.064;2023-02-28T05:07:44;6.33;;;5.73;;
18322;SDS011;9287;49.456;11.064;2023-02-28T05:10:12;6.57;;;6.00;;
18322;SDS011;9287;49.456;11.064;2023-02-28T05:12:39;6.27;;;5.60;;
18322;SDS011;9287;49.456;11.064;2023-02-28T05:15:08;5.97;;;5.37;;
18322;SDS011;9287;49.456;11.064;2023-02-28T05:17:40;6.50;;;5.90;;
18322;SDS011;9287;49.456;11.064;2023-02-28T05:20:09;6.80;;;6.20;;
18322;SDS011;9287;49.456;11.064;2023-02-28T05:22:41;8.63;;;6.37;;
18322;SDS011;9287;49.456;11.064;2023-02-28T05:25:09;6.90;;;5.50;;
18322;SDS011;9287;49.456;11.064;2023-02-28T05:27:39;7.03;;;5.73;;
18322;SDS011;9287;49.456;11.064;2023-02-28T05:30:07;6.70;;;6.00;;
18322;SDS011;9287;49.456;11.064;2023-02-28T05:32:38;6.90;;;6.20;;
18322;SDS011;9287;49.456;11.064;2023-02-28T05:35:10;7.07;;;6.27;;
18322;SDS011;9287;49.456;11.064;2023-02-28T05:37:38;6.90;;;6.10;;
18322;SDS011;9287;49.456;11.064;2023-02-28T05:40:07;7.57;;;6.77;;
18322;SDS011;9287;49.456;11.064;2023-02-28T05:42:36;7.83;;;6.20;;
18322;SDS011;9287;49.456;11.064;2023-02-28T05:45:04;8.40;;;5.57;;
18322;SDS011;9287;49.456;11.064;2023-02-28T05:47:34;8.17;;;6.87;;
18322;SDS011;9287;49.456;11.064;2023-02-28T05:50:02;9.10;;;6.37;;
18322;SDS011;9287;49.456;11.064;2023-02-28T05:52:32;7.23;;;5.80;;
18322;SDS011;9287;49.456;11.064;2023-02-28T05:54:59;6.47;;;5.87;;
18322;SDS011;9287;49.456;11.064;2023-02-28T05:57:27;7.03;;;5.70;;
18322;SDS011;9287;49.456;11.064;2023-02-28T05:59:55;6.70;;;6.03;;
18322;SDS011;9287;49.456;11.064;2023-02-28T06:02:23;6.20;;;5.70;;
18322;SDS011;9287;49.456;11.064;2023-02-28T06:04:51;7.40;;;6.50;;
18322;SDS011;9287;49.456;11.064;2023-02-28T06:07:19;7.57;;;6.73;;
18322;SDS011;9287;49.456;11.064;2023-02-28T06:09:50;7.57;;;6.60;;
18322;SDS011;9287;49.456;11.064;2023-02-28T06:12:18;7.30;;;6.63;;
18322;SDS011;9287;49.456;11.064;2023-02-28T06:14:45;7.90;;;6.47;;
18322;SDS011;9287;49.456;11.064;2023-02-28T06:17:13;6.50;;;5.90;;
18322;SDS011;9287;49.456;11.064;2023-02-28T06:19:41;6.80;;;6.03;;
18322;SDS011;9287;49.456;11.064;2023-02-28T06:22:09;6.67;;;5.97;;
18322;SDS011;9287;49.456;11.064;2023-02-28T06:24:37;6.30;;;5.70;;
18322;SDS011;9287;49.456;11.064;2023-02-28T06:27:06;6.53;;;5.93;;
18322;SDS011;9287;49.456;11.064;2023-02-28T06:29:34;9.00;;;6.67;;
18322;SDS011;9287;49.456;11.064;2023-02-28T06:32:02;7.93;;;6.37;;
18322;SDS011;9287;49.456;11.064;2023-02-28T06:34:30;8.27;;;6.33;;
18322;SDS011;9287;49.456;11.064;2023-02-28T06:36:57;7.67;;;6.70;;
18322;SDS011;9287;49.456;11.064;2023-02-28T06:39:28;8.17;;;7.20;;
18322;SDS011;9287;49.456;11.064;2023-02-28T06:41:56;8.40;;;7.60;;
18322;SDS011;9287;49.456;11.064;2023-02-28T06:44:25;9.97;;;6.87;;
18322;SDS011;9287;49.456;11.064;2023-02-28T06:46:53;7.33;;;6.40;;
18322;SDS011;9287;49.456;11.064;2023-02-28T06:49:20;7.47;;;6.63;;
18322;SDS011;9287;49.456;11.064;2023-02-28T06:51:48;9.03;;;6.97;;
18322;SDS011;9287;49.456;11.064;2023-02-28T06:54:16;6.87;;;6.27;;
18322;SDS011;9287;49.456;11.064;2023-02-28T06:56:44;7.10;;;6.33;;
18322;SDS011;9287;49.456;11.064;2023-02-28T06:59:13;9.03;;;6.97;;
18322;SDS011;9287;49.456;11.064;2023-02-28T07:01:42;7.70;;;6.73;;
18322;SDS011;9287;49.456;11.064;2023-02-28T07:04:10;9.17;;;6.17;;
18322;SDS011;9287;49.456;11.064;2023-02-28T07:06:39;8.63;;;6.73;;
18322;SDS011;9287;49.456;11.064;2023-02-28T07:09:07;6.67;;;6.00;;
18322;SDS011;9287;49.456;11.064;2023-02-28T07:11:36;7.33;;;6.70;;
18322;SDS011;9287;49.456;11.064;2023-02-28T07:14:04;10.90;;;6.23;;
18322;SDS011;9287;49.456;11.064;2023-02-28T07:16:32;8.90;;;6.53;;
18322;SDS011;9287;49.456;11.064;2023-02-28T07:19:01;9.30;;;6.57;;
18322;SDS011;9287;49.456;11.064;2023-02-28T07:21:29;7.63;;;6.40;;
18322;SDS011;9287;49.456;11.064;2023-02-28T07:23:57;9.30;;;6.40;;
18322;SDS011;9287;49.456;11.064;2023-02-28T07:26:25;8.27;;;6.00;;
18322;SDS011;9287;49.456;11.064;2023-02-28T07:28:53;7.53;;;6.10;;
18322;SDS011;9287;49.456;11.064;2023-02-28T07:31:20;9.03;;;6.93;;
18322;SDS011;9287;49.456;11.064;2023-02-28T07:33:48;10.00;;;6.93;;
18322;SDS011;9287;49.456;11.064;2023-02-28T07:36:17;8.00;;;7.13;;
18322;SDS011;9287;49.456;11.064;2023-02-28T07:38:46;8.37;;;6.83;;
18322;SDS011;9287;49.456;11.064;2023-02-28T07:41:16;8.17;;;6.50;;
18322;SDS011;9287;49.456;11.064;2023-02-28T07:43:45;9.40;;;7.17;;
18322;SDS011;9287;49.456;11.064;2023-02-28T07:46:14;8.33;;;7.13;;
18322;SDS011;9287;49.456;11.064;2023-02-28T07:48:44;10.20;;;6.70;;
18322;SDS011;9287;49.456;11.064;2023-02-28T07:51:12;7.57;;;6.67;;
18322;SDS011;9287;49.456;11.064;2023-02-28T07:53:41;9.47;;;7.80;;
18322;SDS011;9287;49.456;11.064;2023-02-28T07:56:09;8.77;;;7.07;;
18322;SDS011;9287;49.456;11.064;2023-02-28T07:58:37;7.60;;;6.33;;
18322;SDS011;9287;49.456;11.064;2023-02-28T08:01:05;7.63;;;6.87;;
18322;SDS011;9287;49.456;11.064;2023-02-28T08:03:34;8.50;;;6.63;;
18322;SDS011;9287;49.456;11.064;2023-02-28T08:06:02;9.73;;;7.43;;
18322;SDS011;9287;49.456;11.064;2023-02-28T08:08:31;8.07;;;6.67;;
18322;SDS011;9287;49.456;11.064;2023-02-28T08:11:01;7.80;;;7.00;;
18322;SDS011;9287;49.456;11.064;2023-02-28T08:13:30;9.10;;;6.20;;
18322;SDS011;9287;49.456;11.064;2023-02-28T08:15:57;10.40;;;7.70;;
18322;SDS011;9287;49.456;11.064;2023-02-28T08:18:25;6.50;;;5.90;;
18322;SDS011;9287;49.456;11.064;2023-02-28T08:20:53;6.97;;;5.57;;
18322;SDS011;9287;49.456;11.064;2023-02-28T08:23:21;6.60;;;5.67;;
18322;SDS011;9287;49.456;11.064;2023-02-28T08:25:52;7.33;;;6.10;;
18322;SDS011;9287;49.456;11.064;2023-02-28T08:28:22;7.60;;;6.20;;
18322;SDS011;9287;49.456;11.064;2023-02-28T08:30:52;7.30;;;5.60;;
18322;SDS011;9287;49.456;11.064;2023-02-28T08:33:21;7.43;;;5.80;;
18322;SDS011;9287;49.456;11.064;2023-02-28T08:35:51;7.17;;;5.83;;
18322;SDS011;9287;49.456;11.064;2023-02-28T08:38:20;12.73;;;6.17;;
18322;SDS011;9287;49.456;11.064;2023-02-28T08:40:49;7.30;;;5.87;;
18322;SDS011;9287;49.456;11.064;2023-02-28T08:43:16;9.13;;;6.40;;
18322;SDS011;9287;49.456;11.064;2023-02-28T08:45:45;8.03;;;6.43;;
18322;SDS011;9287;49.456;11.064;2023-02-28T08:48:13;7.30;;;6.17;;
18322;SDS011;9287;49.456;11.064;2023-02-28T08:50:44;6.97;;;5.63;;
18322;SDS011;9287;49.456;11.064;2023-02-28T08:53:30;7.03;;;6.30;;
18322;SDS011;9287;49.456;11.064;2023-02-28T08:55:58;8.10;;;6.80;;
18322;SDS011;9287;49.456;11.064;2023-02-28T08:58:26;7.90;;;7.10;;
18322;SDS011;9287;49.456;11.064;2023-02-28T09:00:56;9.73;;;7.23;;
18322;SDS011;9287;49.456;11.064;2023-02-28T09:03:24;10.03;;;6.60;;
18322;SDS011;9287;49.456;11.064;2023-02-28T09:05:56;8.40;;;7.07;;
18322;SDS011;9287;49.456;11.064;2023-02-28T09:08:26;7.87;;;6.93;;
18322;SDS011;9287;49.456;11.064;2023-02-28T09:10:56;8.80;;;7.50;;
18322;SDS011;9287;49.456;11.064;2023-02-28T09:13:26;8.30;;;6.53;;
18322;SDS011;9287;49.456;11.064;2023-02-28T09:15:56;8.80;;;7.13;;
18322;SDS011;9287;49.456;11.064;2023-02-28T09:18:25;10.03;;;6.73;;
18322;SDS011;9287;49.456;11.064;2023-02-28T09:20:53;9.77;;;6.47;;
18322;SDS011;9287;49.456;11.064;2023-02-28T09:23:21;7.37;;;6.50;;
18322;SDS011;9287;49.456;11.064;2023-02-28T09:25:50;7.60;;;6.80;;
18322;SDS011;9287;49.456;11.064;2023-02-28T09:28:19;7.90;;;6.90;;
18322;SDS011;9287;49.456;11.064;2023-02-28T09:30:48;8.47;;;6.67;;
18322;SDS011;9287;49.456;11.064;2023-02-28T09:33:18;10.23;;;7.40;;
18322;SDS011;9287;49.456;11.064;2023-02-28T09:35:47;7.33;;;6.50;;
18322;SDS011;9287;49.456;11.064;2023-02-28T09:38:16;8.23;;;6.33;;
18322;SDS011;9287;49.456;11.064;2023-02-28T09:40:47;8.67;;;6.07;;
18322;SDS011;9287;49.456;11.064;2023-02-28T09:43:18;7.43;;;6.40;;
18322;SDS011;9287;49.456;11.064;2023-02-28T09:45:50;8.43;;;5.90;;
18322;SDS011;9287;49.456;11.064;2023-02-28T09:48:27;7.43;;;6.20;;
18322;SDS011;9287;49.456;11.064;2023-02-28T09:50:59;6.90;;;6.03;;
18322;SDS011;9287;49.456;11.064;2023-02-28T09:53:31;8.60;;;6.43;;
18322;SDS011;9287;49.456;11.064;2023-02-28T09:56:01;9.47;;;6.20;;
18322;SDS011;9287;49.456;11.064;2023-02-28T09:58:32;6.93;;;5.93;;
18322;SDS011;9287;49.456;11.064;2023-02-28T10:01:06;7.23;;;6.13;;
18322;SDS011;9287;49.456;11.064;2023-02-28T10:03:41;7.63;;;6.27;;
18322;SDS011;9287;49.456;11.064;2023-02-28T10:06:14;9.27;;;6.40;;
18322;SDS011;9287;49.456;11.064;2023-02-28T10:08:47;8.50;;;5.80;;
18322;SDS011;9287;49.456;11.064;2023-02-28T10:11:23;7.87;;;5.57;;
18322;SDS011;9287;49.456;11.064;2023-02-28T10:13:54;8.30;;;5.37;;
18322;SDS011;9287;49.456;11.064;2023-02-28T10:16:29;7.90;;;5.53;;
18322;SDS011;9287;49.456;11.064;2023-02-28T10:19:03;5.20;;;4.70;;
18322;SDS011;9287;49.456;11.064;2023-02-28T10:21:35;7.10;;;5.17;;
18322;SDS011;9287;49.456;11.064;2023-02-28T10:24:11;4.97;;;4.60;;
18322;SDS011;9287;49.456;11.064;2023-02-28T10:26:47;6.60;;;4.93;;
18322;SDS011;9287;49.456;11.064;2023-02-28T10:29:15;7.07;;;4.90;;
18322;SDS011;9287;49.456;11.064;2023-02-28T10:31:43;5.80;;;5.00;;
18322;SDS011;9287;49.456;11.064;2023-02-28T10:34:12;5.87;;;5.20;;
18322;SDS011;9287;49.456;11.064;2023-02-28T10:36:41;5.80;;;4.90;;
18322;SDS011;9287;49.456;11.064;2023-02-28T10:42:03;5.80;;;5.30;;
18322;SDS011;9287;49.456;11.064;2023-02-28T10:44:31;9.07;;;5.30;;
18322;SDS011;9287;49.456;11.064;2023-02-28T10:46:59;4.93;;;4.40;;
18322;SDS011;9287;49.456;11.064;2023-02-28T10:49:28;7.50;;;4.40;;
18322;SDS011;9287;49.456;11.064;2023-02-28T10:51:57;5.77;;;4.47;;
18322;SDS011;9287;49.456;11.064;2023-02-28T10:54:27;7.43;;;5.20;;
18322;SDS011;9287;49.456;11.064;2023-02-28T10:57:08;10.03;;;4.80;;
18322;SDS011;9287;49.456;11.064;2023-02-28T10:59:42;5.93;;;5.03;;
18322;SDS011;9287;49.456;11.064;2023-02-28T11:02:29;7.33;;;4.73;;
18322;SDS011;9287;49.456;11.064;2023-02-28T11:07:53;7.87;;;4.53;;
18322;SDS011;9287;49.456;11.064;2023-02-28T11:10:24;5.70;;;5.10;;
18322;SDS011;9287;49.456;11.064;2023-02-28T11:12:54;6.07;;;5.10;;
18322;SDS011;9287;49.456;11.064;2023-02-28T11:15:27;5.83;;;4.83;;
18322;SDS011;9287;49.456;11.064;2023-02-28T11:17:57;5.67;;;4.83;;
18322;SDS011;9287;49.456;11.064;2023-02-28T11:20:29;8.53;;;5.30;;
18322;SDS011;9287;49.456;11.064;2023-02-28T11:23:00;6.77;;;4.87;;
18322;SDS011;9287;49.456;11.064;2023-02-28T11:25:30;5.90;;;4.87;;
18322;SDS011;9287;49.456;11.064;2023-02-28T11:28:00;5.30;;;4.33;;
18322;SDS011;9287;49.456;11.064;2023-02-28T11:30:32;5.27;;;4.80;;
18322;SDS011;9287;49.456;11.064;2023-02-28T11:33:17;4.57;;;4.13;;
18322;SDS011;9287;49.456;11.064;2023-02-28T11:35:50;5.93;;;5.37;;
18322;SDS011;9287;49.456;11.064;2023-02-28T11:38:19;8.03;;;5.03;;
18322;SDS011;9287;49.456;11.064;2023-02-28T11:40:48;6.93;;;4.87;;
18322;SDS011;9287;49.456;11.064;2023-02-28T11:43:36;8.90;;;5.87;;
18322;SDS011;9287;49.456;11.064;2023-02-28T11:46:27;5.60;;;5.10;;
18322;SDS011;9287;49.456;11.064;2023-02-28T11:49:02;6.33;;;5.17;;
18322;SDS011;9287;49.456;11.064;2023-02-28T11:51:45;5.00;;;4.50;;
18322;SDS011;9287;49.456;11.064;2023-02-28T11:54:24;6.10;;;5.50;;
18322;SDS011;9287;49.456;11.064;2023-02-28T11:57:03;7.60;;;5.57;;
18322;SDS011;9287;49.456;11.064;2023-02-28T11:59:47;6.97;;;5.43;;
18322;SDS011;9287;49.456;11.064;2023-02-28T12:02:24;6.03;;;5.10;;
18322;SDS011;9287;49.456;11.064;2023-02-28T12:05:02;5.50;;;4.97;;
18322;SDS011;9287;49.456;11.064;2023-02-28T12:07:46;6.70;;;5.10;;
18322;SDS011;9287;49.456;11.064;2023-02-28T12:10:24;7.53;;;5.40;;
18322;SDS011;9287;49.456;11.064;2023-02-28T12:13:01;5.93;;;4.63;;
18322;SDS011;9287;49.456;11.064;2023-02-28T12:15:58;5.80;;;4.47;;
18322;SDS011;9287;49.456;11.064;2023-02-28T12:18:50;6.67;;;4.83;;
18322;SDS011;9287;49.456;11.064;2023-02-28T12:21:29;7.13;;;5.30;;
18322;SDS011;9287;49.456;11.064;2023-02-28T12:24:13;6.60;;;4.77;;
18322;SDS011;9287;49.456;11.064;2023-02-28T12:27:09;4.93;;;4.47;;
18322;SDS011;9287;49.456;11.064;2023-02-28T12:29:41;4.87;;;4.43;;
18322;SDS011;9287;49.456;11.064;2023-02-28T12:32:16;7.73;;;4.87;;
18322;SDS011;9287;49.456;11.064;2023-02-28T12:34:49;5.67;;;5.13;;
18322;SDS011;9287;49.456;11.064;2023-02-28T12:37:23;6.53;;;4.80;;
18322;SDS011;9287;49.456;11.064;2023-02-28T12:40:00;6.20;;;4.67;;
18322;SDS011;9287;49.456;11.064;2023-02-28T12:42:33;8.83;;;5.13;;
18322;SDS011;9287;49.456;11.064;2023-02-28T12:45:09;6.10;;;4.57;;
18322;SDS011;9287;49.456;11.064;2023-02-28T12:47:40;8.40;;;4.77;;
18322;SDS011;9287;49.456;11.064;2023-02-28T12:50:12;5.10;;;4.60;;
18322;SDS011;9287;49.456;11.064;2023-02-28T12:52:41;6.60;;;4.93;;
18322;SDS011;9287;49.456;11.064;2023-02-28T12:55:23;7.93;;;5.40;;
18322;SDS011;9287;49.456;11.064;2023-02-28T12:57:58;6.27;;;5.13;;
18322;SDS011;9287;49.456;11.064;2023-02-28T13:00:36;5.83;;;4.90;;
18322;SDS011;9287;49.456;11.064;2023-02-28T13:03:24;6.23;;;5.00;;
18322;SDS011;9287;49.456;11.064;2023-02-28T13:09:16;6.53;;;5.40;;
18322;SDS011;9287;49.456;11.064;2023-02-28T13:11:47;6.73;;;5.40;;
18322;SDS011;9287;49.456;11.064;2023-02-28T13:14:22;7.47;;;5.30;;
18322;SDS011;9287;49.456;11.064;2023-02-28T13:16:56;6.67;;;5.03;;
18322;SDS011;9287;49.456;11.064;2023-02-28T13:19:30;6.40;;;5.13;;
18322;SDS011;9287;49.456;11.064;2023-02-28T13:22:01;6.70;;;6.00;;
18322;SDS011;9287;49.456;11.064;2023-02-28T13:24:38;6.73;;;5.20;;
18322;SDS011;9287;49.456;11.064;2023-02-28T13:33:19;8.23;;;6.17;;
18322;SDS011;9287;49.456;11.064;2023-02-28T13:36:00;8.07;;;6.50;;
18322;SDS011;9287;49.456;11.064;2023-02-28T13:38:36;7.17;;;6.07;;
18322;SDS011;9287;49.456;11.064;2023-02-28T13:44:16;7.63;;;6.47;;
18322;SDS011;9287;49.456;11.064;2023-02-28T13:49:49;9.23;;;6.93;;
18322;SDS011;9287;49.456;11.064;2023-02-28T13:52:20;8.90;;;6.60;;
18322;SDS011;9287;49.456;11.064;2023-02-28T13:54:56;7.20;;;6.37;;
18322;SDS011;9287;49.456;11.064;2023-02-28T13:57:50;7.57;;;6.13;;
18322;SDS011;9287;49.456;11.064;2023-02-28T14:00:35;9.27;;;6.73;;
18322;SDS011;9287;49.456;11.064;2023-02-28T14:03:17;8.63;;;6.63;;
18322;SDS011;9287;49.456;11.064;2023-02-28T14:08:47;6.97;;;6.33;;
18322;SDS011;9287;49.456;11.064;2023-02-28T14:11:25;8.30;;;6.53;;
18322;SDS011;9287;49.456;11.064;2023-02-28T14:13:55;9.10;;;5.97;;
18322;SDS011;9287;49.456;11.064;2023-02-28T14:16:24;8.10;;;6.30;;
18322;SDS011;9287;49.456;11.064;2023-02-28T14:18:57;8.83;;;6.63;;
18322;SDS011;9287;49.456;11.064;2023-02-28T14:21:28;8.03;;;6.50;;
18322;SDS011;9287;49.456;11.064;2023-02-28T14:27:04;9.27;;;6.77;;
18322;SDS011;9287;49.456;11.064;2023-02-28T14:32:49;9.60;;;6.63;;
18322;SDS011;9287;49.456;11.064;2023-02-28T14:35:29;8.63;;;6.47;;
18322;SDS011;9287;49.456;11.064;2023-02-28T14:38:13;9.80;;;7.10;;
18322;SDS011;9287;49.456;11.064;2023-02-28T14:40:45;6.97;;;6.27;;
18322;SDS011;9287;49.456;11.064;2023-02-28T14:43:19;8.77;;;6.40;;
18322;SDS011;9287;49.456;11.064;2023-02-28T14:45:49;7.80;;;6.30;;
18322;SDS011;9287;49.456;11.064;2023-02-28T14:48:20;9.00;;;6.73;;
18322;SDS011;9287;49.456;11.064;2023-02-28T14:50:52;7.70;;;6.93;;
18322;SDS011;9287;49.456;11.064;2023-02-28T14:53:22;7.57;;;6.77;;
18322;SDS011;9287;49.456;11.064;2023-02-28T14:55:52;7.57;;;6.47;;
18322;SDS011;9287;49.456;11.064;2023-02-28T14:58:22;7.87;;;6.63;;
18322;SDS011;9287;49.456;11.064;2023-02-28T15:00:53;7.33;;;6.57;;
18322;SDS011;9287;49.456;11.064;2023-02-28T15:03:24;8.37;;;7.37;;
18322;SDS011;9287;49.456;11.064;2023-02-28T15:05:58;10.30;;;7.60;;
18322;SDS011;9287;49.456;11.064;2023-02-28T15:08:27;29.80;;;19.13;;
18322;SDS011;9287;49.456;11.064;2023-02-28T15:10:58;8.33;;;7.33;;
18322;SDS011;9287;49.456;11.064;2023-02-28T15:13:31;7.97;;;7.17;;
18322;SDS011;9287;49.456;11.064;2023-02-28T15:16:04;8.23;;;6.93;;
18322;SDS011;9287;49.456;11.064;2023-02-28T15:18:41;10.93;;;7.10;;
18322;SDS011;9287;49.456;11.064;2023-02-28T15:21:15;8.63;;;7.83;;
18322;SDS011;9287;49.456;11.064;2023-02-28T15:23:45;8.20;;;7.07;;
18322;SDS011;9287;49.456;11.064;2023-02-28T15:26:17;9.43;;;7.17;;
18322;SDS011;9287;49.456;11.064;2023-02-28T15:28:48;8.17;;;7.20;;
18322;SDS011;9287;49.456;11.064;2023-02-28T15:31:19;10.53;;;6.97;;
18322;SDS011;9287;49.456;11.064;2023-02-28T15:33:55;9.13;;;7.10;;
18322;SDS011;9287;49.456;11.064;2023-02-28T15:36:25;10.13;;;8.03;;
18322;SDS011;9287;49.456;11.064;2023-02-28T15:38:55;11.57;;;7.77;;
18322;SDS011;9287;49.456;11.064;2023-02-28T15:41:40;8.77;;;6.90;;
18322;SDS011;9287;49.456;11.064;2023-02-28T15:44:22;9.10;;;6.83;;
18322;SDS011;9287;49.456;11.064;2023-02-28T15:46:54;10.20;;;7.33;;
18322;SDS011;9287;49.456;11.064;2023-02-28T15:49:26;8.53;;;7.00;;
18322;SDS011;9287;49.456;11.064;2023-02-28T15:51:56;9.20;;;7.00;;